createdAt,value
2023-05-15T00:01:25.918Z,10.00
2023-05-15T00:03:55.183Z,12.43
2023-05-15T00:06:23.669Z,11.18
2023-05-15T00:08:51.957Z,11.70
2023-05-15T00:11:21.500Z,14.55
2023-05-15T00:13:50.374Z,11.55
2023-05-15T00:16:18.745Z,12.65
2023-05-15T00:18:47.054Z,16.30
2023-05-15T00:21:15.479Z,16.35
2023-05-15T00:23:43.679Z,14.60
2023-05-15T00:26:15.699Z,12.60
2023-05-15T00:28:43.891Z,13.52
2023-05-15T00:31:13.171Z,15.02
2023-05-15T00:33:41.522Z,15.45
2023-05-15T00:36:11.635Z,14.68
2023-05-15T00:38:39.952Z,12.70
2023-05-15T00:41:10.203Z,13.30
2023-05-15T00:43:41.343Z,14.10
2023-05-15T00:46:10.464Z,10.50
2023-05-15T00:48:39.017Z,11.50
2023-05-15T00:51:07.469Z,11.75
2023-05-15T00:53:36.181Z,9.70
2023-05-15T00:56:07.890Z,11.63
2023-05-15T00:58:38.276Z,13.07
2023-05-15T01:01:08.449Z,10.02
2023-05-15T01:03:38.236Z,10.30
2023-05-15T01:06:06.797Z,9.98
2023-05-15T01:08:46.004Z,11.38
2023-05-15T01:11:16.339Z,11.27
2023-05-15T01:13:45.254Z,11.73
2023-05-15T01:16:13.506Z,12.68
2023-05-15T01:18:41.796Z,10.05
2023-05-15T01:21:35.102Z,12.95
2023-05-15T01:24:34.158Z,12.57
2023-05-15T01:27:31.037Z,9.70
2023-05-15T01:30:02.011Z,11.73
2023-05-15T01:32:52.053Z,10.70
2023-05-15T01:35:30.023Z,9.43
2023-05-15T01:38:21.137Z,11.60
2023-05-15T01:40:54.590Z,10.55
2023-05-15T01:43:28.263Z,12.13
2023-05-15T01:45:58.927Z,8.23
2023-05-15T01:48:31.058Z,9.05
2023-05-15T01:51:04.725Z,8.98
2023-05-15T01:53:35.021Z,8.88
2023-05-15T01:56:06.985Z,9.02
2023-05-15T01:58:37.488Z,8.77
2023-05-15T02:01:09.280Z,6.90
2023-05-15T02:03:38.604Z,8.50
2023-05-15T02:06:07.828Z,8.15
2023-05-15T02:08:36.970Z,8.57
2023-05-15T02:11:05.827Z,9.57
2023-05-15T02:13:34.920Z,7.75
2023-05-15T02:16:03.328Z,8.38
2023-05-15T02:18:31.649Z,8.25
2023-05-15T02:21:03.015Z,8.60
2023-05-15T02:23:31.311Z,7.57
2023-05-15T02:26:24.513Z,9.73
2023-05-15T02:29:06.695Z,12.20
2023-05-15T02:31:59.416Z,9.63
2023-05-15T02:34:42.388Z,9.23
2023-05-15T02:37:14.360Z,8.90
2023-05-15T02:39:43.955Z,9.40
2023-05-15T02:42:14.955Z,8.98
2023-05-15T02:44:44.175Z,10.95
2023-05-15T02:47:13.727Z,9.05
2023-05-15T02:49:42.262Z,12.52
2023-05-15T02:52:10.661Z,12.02
2023-05-15T02:54:38.893Z,11.57
2023-05-15T02:57:08.195Z,10.15
2023-05-15T02:59:37.191Z,10.80
2023-05-15T03:02:05.656Z,10.77
2023-05-15T03:04:34.010Z,10.05
2023-05-15T03:07:02.309Z,9.63
2023-05-15T03:09:30.567Z,9.98
2023-05-15T03:11:58.767Z,12.05
2023-05-15T03:14:27.037Z,10.18
2023-05-15T03:16:58.668Z,9.55
2023-05-15T03:19:27.063Z,9.20
2023-05-15T03:21:55.402Z,8.38
2023-05-15T03:24:23.629Z,8.68
2023-05-15T03:26:51.894Z,10.80
2023-05-15T03:29:20.178Z,12.82
2023-05-15T03:31:48.590Z,6.47
2023-05-15T03:34:16.943Z,7.50
2023-05-15T03:36:45.161Z,7.72
2023-05-15T03:39:13.421Z,7.53
2023-05-15T03:41:41.596Z,7.60
2023-05-15T03:44:09.780Z,6.63
2023-05-15T03:46:38.060Z,4.13
2023-05-15T03:49:06.428Z,3.33
2023-05-15T03:51:36.302Z,4.20
2023-05-15T03:54:05.741Z,3.67
2023-05-15T03:56:34.049Z,6.68
2023-05-15T03:59:02.232Z,4.13
2023-05-15T04:01:30.663Z,5.65
2023-05-15T04:03:58.887Z,4.72
2023-05-15T04:06:27.095Z,6.72
2023-05-15T04:08:55.537Z,4.20
2023-05-15T04:11:24.703Z,5.70
2023-05-15T04:13:52.941Z,3.92
2023-05-15T04:16:21.494Z,3.70
2023-05-15T04:18:49.829Z,5.45
2023-05-15T04:21:18.076Z,6.60
2023-05-15T04:23:46.392Z,7.45
2023-05-15T04:26:14.671Z,4.28
2023-05-15T04:28:52.411Z,3.42
2023-05-15T04:31:24.936Z,7.18
2023-05-15T04:33:53.221Z,3.72
2023-05-15T04:36:22.540Z,4.05
2023-05-15T04:38:50.774Z,3.13
2023-05-15T04:41:19.001Z,2.58
2023-05-15T04:43:47.233Z,2.50
2023-05-15T04:46:16.327Z,3.50
2023-05-15T04:48:44.546Z,2.22
2023-05-15T04:51:12.913Z,4.45
2023-05-15T04:53:41.130Z,2.20
2023-05-15T04:56:09.781Z,6.05
2023-05-15T04:58:38.005Z,2.53
2023-05-15T05:01:06.291Z,4.03
2023-05-15T05:03:34.535Z,5.03
2023-05-15T05:06:02.755Z,3.13
2023-05-15T05:08:30.993Z,2.72
2023-05-15T05:10:59.239Z,6.15
2023-05-15T05:13:27.542Z,5.53
2023-05-15T05:15:55.785Z,6.28
2023-05-15T05:18:24.333Z,3.92
2023-05-15T05:21:03.275Z,3.83
2023-05-15T05:23:31.948Z,3.95
2023-05-15T05:26:00.786Z,4.00
2023-05-15T05:28:28.984Z,4.45
2023-05-15T05:30:57.232Z,4.68
2023-05-15T05:33:25.481Z,3.97
2023-05-15T05:35:53.737Z,10.85
2023-05-15T05:38:21.955Z,3.13
2023-05-15T05:40:51.071Z,5.25
2023-05-15T05:43:20.851Z,6.15
2023-05-15T05:45:49.107Z,6.78
2023-05-15T05:48:17.337Z,10.88
2023-05-15T05:50:45.896Z,6.82
2023-05-15T05:53:14.164Z,6.70
2023-05-15T05:55:42.896Z,8.90
2023-05-15T05:58:21.662Z,12.52
2023-05-15T06:00:53.477Z,8.93
2023-05-15T06:03:22.987Z,7.70
2023-05-15T06:05:51.414Z,8.98
2023-05-15T06:08:20.269Z,9.98
2023-05-15T06:10:48.699Z,10.48
2023-05-15T06:13:17.486Z,11.27
2023-05-15T06:15:46.493Z,10.02
2023-05-15T06:18:14.756Z,10.13
2023-05-15T06:20:43.206Z,8.40
2023-05-15T06:23:11.519Z,10.38
2023-05-15T06:25:40.217Z,12.27
2023-05-15T06:28:08.498Z,11.93
2023-05-15T06:30:36.736Z,9.80
2023-05-15T06:33:05.090Z,8.27
2023-05-15T06:35:33.351Z,10.27
2023-05-15T06:38:02.062Z,9.43
2023-05-15T06:40:30.394Z,10.38
2023-05-15T06:42:59.177Z,9.32
2023-05-15T06:45:27.888Z,10.50
2023-05-15T06:47:57.496Z,10.98
2023-05-15T06:50:27.611Z,11.68
2023-05-15T06:52:56.060Z,11.35
2023-05-15T06:55:24.459Z,10.20
2023-05-15T06:57:52.793Z,9.18
2023-05-15T07:00:21.206Z,9.35
2023-05-15T07:02:49.508Z,9.88
2023-05-15T07:05:17.821Z,14.10
2023-05-15T07:07:46.098Z,8.88
2023-05-15T07:10:14.358Z,13.52
2023-05-15T07:12:42.625Z,7.53
2023-05-15T07:15:11.154Z,6.25
2023-05-15T07:17:39.419Z,8.05
2023-05-15T07:20:08.204Z,11.48
2023-05-15T07:22:44.458Z,9.60
2023-05-15T07:25:15.529Z,6.25
2023-05-15T07:27:45.218Z,5.28
2023-05-15T07:30:13.761Z,6.80
2023-05-15T07:32:42.088Z,7.82
2023-05-15T07:35:11.679Z,5.90
2023-05-15T07:37:40.208Z,5.90
2023-05-15T07:40:08.961Z,5.78
2023-05-15T07:42:37.156Z,5.32
2023-05-15T07:45:06.217Z,6.15
2023-05-15T07:47:35.785Z,6.15
2023-05-15T07:50:04.405Z,6.30
2023-05-15T07:52:32.616Z,9.13
2023-05-15T07:55:01.351Z,14.30
2023-05-15T07:57:29.927Z,7.65
2023-05-15T07:59:58.535Z,6.22
2023-05-15T08:02:26.932Z,5.80
2023-05-15T08:04:55.208Z,6.78
2023-05-15T08:07:23.498Z,6.03
2023-05-15T08:09:51.974Z,4.32
2023-05-15T08:12:21.958Z,7.68
2023-05-15T08:14:51.096Z,5.68
2023-05-15T08:17:19.611Z,8.52
2023-05-15T08:19:48.586Z,7.68
2023-05-15T08:22:17.123Z,6.90
2023-05-15T08:24:45.779Z,9.35
2023-05-15T08:27:14.155Z,11.55
2023-05-15T08:29:42.434Z,10.52
2023-05-15T08:32:10.712Z,8.65
2023-05-15T08:34:39.178Z,9.32
2023-05-15T08:37:07.540Z,10.30
2023-05-15T08:39:35.838Z,11.43
2023-05-15T08:42:22.449Z,10.60
2023-05-15T08:44:51.209Z,10.60
2023-05-15T08:47:21.093Z,11.48
2023-05-15T08:50:06.904Z,12.27
2023-05-15T08:52:36.211Z,12.88
2023-05-15T08:55:05.273Z,11.07
2023-05-15T08:57:35.093Z,12.52
2023-05-15T09:00:09.083Z,13.07
2023-05-15T09:02:38.488Z,13.48
2023-05-15T09:05:08.300Z,16.67
2023-05-15T09:07:38.979Z,17.08
2023-05-15T09:10:08.425Z,15.88
2023-05-15T09:12:39.239Z,16.05
2023-05-15T09:15:17.434Z,14.57
2023-05-15T09:17:46.685Z,13.13
2023-05-15T09:20:27.129Z,11.70
2023-05-15T09:22:57.015Z,11.45
2023-05-15T09:25:42.737Z,16.67
2023-05-15T09:28:28.015Z,11.77
2023-05-15T09:31:01.498Z,12.55
2023-05-15T09:33:34.945Z,10.77
2023-05-15T09:36:04.891Z,10.35
2023-05-15T09:38:48.315Z,11.85
2023-05-15T09:43:52.994Z,10.75
2023-05-15T09:46:21.575Z,10.02
2023-05-15T09:48:54.253Z,11.13
2023-05-15T09:51:22.863Z,10.77
2023-05-15T09:53:52.930Z,9.15
2023-05-15T09:56:22.142Z,9.45
2023-05-15T09:58:58.875Z,8.95
2023-05-15T10:01:27.903Z,8.48
2023-05-15T10:04:02.595Z,11.50
2023-05-15T10:06:38.282Z,8.48
2023-05-15T10:09:07.761Z,8.32
2023-05-15T10:11:38.709Z,8.60
2023-05-15T10:14:09.182Z,8.85
2023-05-15T10:16:39.240Z,9.00
2023-05-15T10:19:13.573Z,10.57
2023-05-15T10:21:42.756Z,9.50
2023-05-15T10:24:12.259Z,8.38
2023-05-15T10:26:42.710Z,7.95
2023-05-15T10:29:13.672Z,10.35
2023-05-15T10:31:42.848Z,9.48
2023-05-15T10:34:12.097Z,9.70
2023-05-15T10:36:43.132Z,8.60
2023-05-15T10:39:12.670Z,10.25
2023-05-15T10:41:41.241Z,7.20
2023-05-15T10:44:10.058Z,11.25
2023-05-15T10:46:38.526Z,7.95
2023-05-15T10:49:09.416Z,7.85
2023-05-15T10:51:39.661Z,8.27
2023-05-15T10:54:09.927Z,5.75
2023-05-15T10:56:39.617Z,8.43
2023-05-15T10:59:10.318Z,8.00
2023-05-15T11:01:40.805Z,6.78
2023-05-15T11:04:17.354Z,9.05
2023-05-15T11:06:47.156Z,8.07
2023-05-15T11:09:34.832Z,6.82
2023-05-15T11:12:05.395Z,4.95
2023-05-15T11:14:37.045Z,8.23
2023-05-15T11:17:10.567Z,5.88
2023-05-15T11:19:49.953Z,4.97
2023-05-15T11:22:21.161Z,5.88
2023-05-15T11:25:09.395Z,6.22
2023-05-15T11:27:43.062Z,4.00
2023-05-15T11:30:25.182Z,4.88
2023-05-15T11:32:59.131Z,5.50
2023-05-15T11:35:29.305Z,4.57
2023-05-15T11:38:03.864Z,5.10
2023-05-15T11:40:43.153Z,5.03
2023-05-15T11:43:35.172Z,8.23
2023-05-15T11:46:09.493Z,5.25
2023-05-15T11:48:41.793Z,4.40
2023-05-15T11:51:22.192Z,5.22
2023-05-15T11:53:51.689Z,4.82
2023-05-15T11:56:21.700Z,7.32
2023-05-15T11:58:51.573Z,4.97
2023-05-15T12:01:19.822Z,4.35
2023-05-15T12:03:50.102Z,6.97
2023-05-15T12:06:19.231Z,8.05
2023-05-15T12:08:53.051Z,7.93
2023-05-15T12:11:25.444Z,7.05
2023-05-15T12:13:55.258Z,5.50
2023-05-15T12:16:27.563Z,5.55
2023-05-15T12:18:58.454Z,5.22
2023-05-15T12:21:30.964Z,5.93
2023-05-15T12:26:30.997Z,5.22
2023-05-15T12:28:59.532Z,4.97
2023-05-15T12:31:27.979Z,6.93
2023-05-15T12:33:56.977Z,8.05
2023-05-15T12:36:27.359Z,6.47
2023-05-15T12:38:55.929Z,5.28
2023-05-15T12:41:29.187Z,4.68
2023-05-15T12:43:57.447Z,6.57
2023-05-15T12:46:32.446Z,6.35
2023-05-15T12:49:01.154Z,7.07
2023-05-15T12:51:30.081Z,4.20
2023-05-15T12:53:58.956Z,5.22
2023-05-15T12:56:29.372Z,5.38
2023-05-15T12:58:57.721Z,7.35
2023-05-15T13:01:28.931Z,4.38
2023-05-15T13:03:57.799Z,5.82
2023-05-15T13:06:34.801Z,4.50
2023-05-15T13:09:13.905Z,4.35
2023-05-15T13:11:45.704Z,3.70
2023-05-15T13:14:17.718Z,4.55
2023-05-15T13:16:47.578Z,8.10
2023-05-15T13:19:16.921Z,3.30
2023-05-15T13:21:45.757Z,6.50
2023-05-15T13:24:13.992Z,4.88
2023-05-15T13:26:42.538Z,4.35
2023-05-15T13:29:11.319Z,6.30
2023-05-15T13:31:39.606Z,3.05
2023-05-15T13:34:07.860Z,4.63
2023-05-15T13:36:36.237Z,4.03
2023-05-15T13:39:04.790Z,6.20
2023-05-15T13:41:32.971Z,4.25
2023-05-15T13:44:01.227Z,4.78
2023-05-15T13:46:29.628Z,3.22
2023-05-15T13:48:57.973Z,4.78
2023-05-15T13:51:26.293Z,6.28
2023-05-15T13:53:54.521Z,5.93
2023-05-15T13:56:22.848Z,2.75
2023-05-15T13:58:51.354Z,11.27
2023-05-15T14:01:20.059Z,5.05
2023-05-15T14:03:48.391Z,4.75
2023-05-15T14:06:16.682Z,4.25
2023-05-15T14:08:44.939Z,6.03
2023-05-15T14:11:13.550Z,2.95
2023-05-15T14:13:42.436Z,4.28
2023-05-15T14:16:10.783Z,5.20
2023-05-15T14:18:39.082Z,4.57
2023-05-15T14:21:07.346Z,5.05
2023-05-15T14:23:36.003Z,3.10
2023-05-15T14:26:04.313Z,2.58
2023-05-15T14:28:33.981Z,3.40
2023-05-15T14:31:02.249Z,3.15
2023-05-15T14:33:30.595Z,4.63
2023-05-15T14:35:58.886Z,3.75
2023-05-15T14:38:27.098Z,3.20
2023-05-15T14:40:55.387Z,5.20
2023-05-15T14:43:25.047Z,4.13
2023-05-15T14:45:53.373Z,3.30
2023-05-15T14:48:21.699Z,3.03
2023-05-15T14:50:50.493Z,3.17
2023-05-15T14:53:18.825Z,2.42
2023-05-15T14:55:47.122Z,5.88
2023-05-15T14:58:15.567Z,4.10
2023-05-15T15:00:43.903Z,2.20
2023-05-15T15:03:12.301Z,3.22
2023-05-15T15:05:41.203Z,2.88
2023-05-15T15:08:10.062Z,4.80
2023-05-15T15:10:40.563Z,3.35
2023-05-15T15:13:10.224Z,3.05
2023-05-15T15:15:38.593Z,4.43
2023-05-15T15:18:07.797Z,3.33
2023-05-15T15:20:36.215Z,2.63
2023-05-15T15:23:14.869Z,5.15
2023-05-15T15:25:43.489Z,5.32
2023-05-15T15:28:11.816Z,2.40
2023-05-15T15:30:41.173Z,2.83
2023-05-15T15:33:09.718Z,3.45
2023-05-15T15:35:37.962Z,2.20
2023-05-15T15:38:09.217Z,3.83
2023-05-15T15:40:39.287Z,4.05
2023-05-15T15:43:10.068Z,2.47
2023-05-15T15:45:39.103Z,3.20
2023-05-15T15:48:07.508Z,3.72
2023-05-15T15:50:36.285Z,3.55
2023-05-15T15:53:04.996Z,3.60
2023-05-15T15:55:33.986Z,2.60
2023-05-15T15:58:02.497Z,2.90
2023-05-15T16:00:30.809Z,3.22
2023-05-15T16:02:59.793Z,3.28
2023-05-15T16:05:28.213Z,3.78
2023-05-15T16:07:56.454Z,2.95
2023-05-15T16:10:24.790Z,3.20
2023-05-15T16:12:53.138Z,4.18
2023-05-15T16:15:23.860Z,5.97
2023-05-15T16:17:54.466Z,4.78
2023-05-15T16:20:24.556Z,4.55
2023-05-15T16:22:53.285Z,6.40
2023-05-15T16:25:21.832Z,7.82
2023-05-15T16:27:50.082Z,4.22
2023-05-15T16:30:18.414Z,3.83
2023-05-15T16:32:46.854Z,4.85
2023-05-15T16:35:15.419Z,14.55
2023-05-15T16:37:43.833Z,19.50
2023-05-15T16:40:12.480Z,22.15
2023-05-15T16:42:41.516Z,16.05
2023-05-15T16:45:10.436Z,10.15
2023-05-15T16:47:39.679Z,10.02
2023-05-15T16:50:08.615Z,12.00
2023-05-15T16:52:38.719Z,4.65
2023-05-15T16:55:07.521Z,4.78
2023-05-15T16:57:36.067Z,4.35
2023-05-15T17:00:06.312Z,5.90
2023-05-15T17:02:37.504Z,3.30
2023-05-15T17:05:08.746Z,7.55
2023-05-15T17:07:38.581Z,5.43
2023-05-15T17:10:08.086Z,5.43
2023-05-15T17:12:36.463Z,7.82
2023-05-15T17:15:05.595Z,5.80
2023-05-15T17:17:34.766Z,6.03
2023-05-15T17:20:05.728Z,4.20
2023-05-15T17:22:34.074Z,4.25
2023-05-15T17:25:07.063Z,7.68
2023-05-15T17:27:41.789Z,8.50
2023-05-15T17:30:49.225Z,8.85
2023-05-15T17:36:43.478Z,9.32
2023-05-15T17:39:15.780Z,3.60
2023-05-15T17:41:44.267Z,6.28
2023-05-15T17:44:13.261Z,3.45
2023-05-15T17:46:42.163Z,8.75
2023-05-15T17:49:11.233Z,10.27
2023-05-15T17:51:43.876Z,9.30
2023-05-15T17:54:12.529Z,7.35
2023-05-15T17:56:41.471Z,7.22
2023-05-15T17:59:10.358Z,12.40
2023-05-15T18:01:41.209Z,11.35
2023-05-15T18:04:09.945Z,7.68
2023-05-15T18:06:38.872Z,3.58
2023-05-15T18:09:07.686Z,5.18
2023-05-15T18:11:36.003Z,2.92
2023-05-15T18:14:04.319Z,2.50
2023-05-15T18:16:32.862Z,4.70
2023-05-15T18:19:01.963Z,3.95
2023-05-15T18:21:30.644Z,4.75
2023-05-15T18:23:58.887Z,4.05
2023-05-15T18:26:29.149Z,5.70
2023-05-15T18:28:57.482Z,3.40
2023-05-15T18:31:25.752Z,8.15
2023-05-15T18:33:54.453Z,5.65
2023-05-15T18:36:22.820Z,5.18
2023-05-15T18:38:50.970Z,4.85
2023-05-15T18:41:19.249Z,5.20
2023-05-15T18:43:47.499Z,9.40
2023-05-15T18:46:15.802Z,6.00
2023-05-15T18:48:44.168Z,3.50
2023-05-15T18:51:13.481Z,5.80
2023-05-15T18:53:41.716Z,5.45
2023-05-15T18:56:09.982Z,3.17
2023-05-15T18:58:38.178Z,3.72
2023-05-15T19:01:06.450Z,5.43
2023-05-15T19:03:37.890Z,5.10
2023-05-15T19:06:06.296Z,7.50
2023-05-15T19:08:34.630Z,2.70
2023-05-15T19:11:02.846Z,6.30
2023-05-15T19:13:32.917Z,3.00
2023-05-15T19:16:01.212Z,3.60
2023-05-15T19:18:32.458Z,7.32
2023-05-15T19:21:01.044Z,3.45
2023-05-15T19:23:29.405Z,8.13
2023-05-15T19:25:57.650Z,3.55
2023-05-15T19:28:26.053Z,3.58
2023-05-15T19:30:54.320Z,2.83
2023-05-15T19:33:22.659Z,2.83
2023-05-15T19:35:50.960Z,4.10
2023-05-15T19:38:19.363Z,2.90
2023-05-15T19:40:47.566Z,3.92
2023-05-15T19:43:15.780Z,3.60
2023-05-15T19:45:44.365Z,2.42
2023-05-15T19:48:13.909Z,3.25
2023-05-15T19:50:42.210Z,2.30
2023-05-15T19:53:12.045Z,3.08
2023-05-15T19:55:40.950Z,3.50
2023-05-15T19:58:09.347Z,3.42
2023-05-15T20:00:37.743Z,3.97
2023-05-15T20:03:06.277Z,4.10
2023-05-15T20:05:34.561Z,1.50
2023-05-15T20:08:03.134Z,4.22
2023-05-15T20:10:31.565Z,1.95
2023-05-15T20:13:00.461Z,3.70
2023-05-15T20:15:29.774Z,1.48
2023-05-15T20:17:58.762Z,6.63
2023-05-15T20:20:27.238Z,6.43
2023-05-15T20:22:55.758Z,4.40
2023-05-15T20:25:24.408Z,4.22
2023-05-15T20:27:56.964Z,1.60
2023-05-15T20:30:27.135Z,1.95
2023-05-15T20:32:55.880Z,1.38
2023-05-15T20:35:24.542Z,1.83
2023-05-15T20:37:53.120Z,2.05
2023-05-15T20:40:23.013Z,3.38
2023-05-15T20:42:52.218Z,3.08
2023-05-15T20:45:20.810Z,2.05
2023-05-15T20:47:49.977Z,1.75
2023-05-15T20:50:18.997Z,1.58
2023-05-15T20:52:47.834Z,1.67
2023-05-15T20:55:17.239Z,3.28
2023-05-15T20:57:46.188Z,3.30
2023-05-15T21:00:16.901Z,2.58
2023-05-15T21:02:46.720Z,2.13
2023-05-15T21:05:15.229Z,3.00
2023-05-15T21:07:44.367Z,2.00
2023-05-15T21:10:12.626Z,7.40
2023-05-15T21:12:42.210Z,2.38
2023-05-15T21:15:11.258Z,4.60
2023-05-15T21:17:39.981Z,4.35
2023-05-15T21:20:08.935Z,3.65
2023-05-15T21:22:37.277Z,5.30
2023-05-15T21:25:06.112Z,5.47
2023-05-15T21:27:34.299Z,6.13
2023-05-15T21:30:02.750Z,3.70
2023-05-15T21:32:32.107Z,2.75
2023-05-15T21:35:00.384Z,2.55
2023-05-15T21:37:28.578Z,1.63
2023-05-15T21:39:56.782Z,1.30
2023-05-15T21:42:25.043Z,2.95
2023-05-15T21:44:55.794Z,2.83
2023-05-15T21:47:24.112Z,3.50
2023-05-15T21:49:52.421Z,5.43
2023-05-15T21:52:21.710Z,5.88
2023-05-15T21:54:50.175Z,4.28
2023-05-15T21:57:18.655Z,3.15
2023-05-15T21:59:46.877Z,5.00
2023-05-15T22:02:15.246Z,2.25
2023-05-15T22:04:43.640Z,4.80
2023-05-15T22:07:14.418Z,5.05
2023-05-15T22:09:45.010Z,6.43
2023-05-15T22:12:13.563Z,2.75
2023-05-15T22:14:54.530Z,4.65
2023-05-15T22:17:30.626Z,2.85
2023-05-15T22:20:07.997Z,7.80
2023-05-15T22:22:37.067Z,4.45
2023-05-15T22:25:06.155Z,3.47
2023-05-15T22:27:35.183Z,6.53
2023-05-15T22:30:04.237Z,6.30
2023-05-15T22:32:33.245Z,6.65
2023-05-15T22:35:02.293Z,2.55
2023-05-15T22:37:30.773Z,3.33
2023-05-15T22:39:59.138Z,2.15
2023-05-15T22:42:30.381Z,9.88
2023-05-15T22:44:58.761Z,3.60
2023-05-15T22:47:30.491Z,3.20
2023-05-15T22:49:59.050Z,2.33
2023-05-15T22:52:27.382Z,1.63
2023-05-15T22:54:55.707Z,1.23
2023-05-15T22:57:24.177Z,4.90
2023-05-15T22:59:54.116Z,1.83
2023-05-15T23:02:22.580Z,1.40
2023-05-15T23:04:50.937Z,2.83
2023-05-15T23:07:19.342Z,1.95
2023-05-15T23:09:47.658Z,3.92
2023-05-15T23:12:16.059Z,2.45
2023-05-15T23:14:44.453Z,0.65
2023-05-15T23:17:13.322Z,1.02
2023-05-15T23:19:42.140Z,3.22
2023-05-15T23:22:12.438Z,0.60
2023-05-15T23:24:40.834Z,0.55
2023-05-15T23:27:09.116Z,0.70
2023-05-15T23:29:37.400Z,1.55
2023-05-15T23:32:06.304Z,0.82
2023-05-15T23:34:34.603Z,0.50
2023-05-15T23:37:02.930Z,0.88
2023-05-15T23:39:31.183Z,1.40
2023-05-15T23:42:00.256Z,0.45
2023-05-15T23:44:28.635Z,0.52
2023-05-15T23:46:57.247Z,0.43
2023-05-15T23:49:25.519Z,3.45
2023-05-15T23:51:53.844Z,0.50
2023-05-15T23:54:22.152Z,0.55
2023-05-15T23:56:50.494Z,1.70
2023-05-15T23:59:18.812Z,1.20
